createdAt,value
2017-06-05T00:01:43.261Z,100790
2017-06-05T00:04:11.488Z,100788
2017-06-05T00:06:39.696Z,100797
2017-06-05T00:09:08.334Z,100786
2017-06-05T00:11:36.541Z,100787
2017-06-05T00:14:04.717Z,100790
2017-06-05T00:16:32.922Z,100792
2017-06-05T00:19:01.109Z,100799
2017-06-05T00:21:29.730Z,100796
2017-06-05T00:23:58.682Z,100789
2017-06-05T00:26:26.868Z,100788
2017-06-05T00:28:55.062Z,100793
2017-06-05T00:31:24.019Z,100792
2017-06-05T00:33:52.550Z,100792
2017-06-05T00:36:21.505Z,100793
2017-06-05T00:38:49.682Z,100792
2017-06-05T00:41:17.878Z,100797
2017-06-05T00:43:46.815Z,100787
2017-06-05T00:46:15.333Z,100797
2017-06-05T00:48:43.548Z,100792
2017-06-05T00:51:11.751Z,100793
2017-06-05T00:53:40.033Z,100795
2017-06-05T00:56:08.243Z,100798
2017-06-05T00:58:37.615Z,100788
2017-06-05T01:01:05.794Z,100792
2017-06-05T01:03:33.996Z,100788
2017-06-05T01:06:02.222Z,100793
2017-06-05T01:08:30.418Z,100795
2017-06-05T01:10:58.994Z,100797
2017-06-05T01:13:27.177Z,100799
2017-06-05T01:15:55.356Z,100804
2017-06-05T01:18:23.565Z,100799
2017-06-05T01:20:51.775Z,100800
2017-06-05T01:23:20.364Z,100802
2017-06-05T01:25:48.548Z,100800
2017-06-05T01:28:16.745Z,100803
2017-06-05T01:30:45.716Z,100801
2017-06-05T01:33:13.905Z,100807
2017-06-05T01:35:42.479Z,100803
2017-06-05T01:38:11.470Z,100808
2017-06-05T01:40:40.465Z,100805
2017-06-05T01:43:08.657Z,100803
2017-06-05T01:45:37.693Z,100805
2017-06-05T01:48:06.290Z,100806
2017-06-05T01:50:34.530Z,100809
2017-06-05T01:53:02.760Z,100810
2017-06-05T01:55:31.011Z,100800
2017-06-05T01:57:59.190Z,100803
2017-06-05T02:00:27.809Z,100795
2017-06-05T02:02:55.980Z,100801
2017-06-05T02:05:24.185Z,100805
2017-06-05T02:07:52.370Z,100803
2017-06-05T02:10:20.590Z,100799
2017-06-05T02:12:50.002Z,100793
2017-06-05T02:15:18.196Z,100799
2017-06-05T02:17:46.435Z,100793
2017-06-05T02:20:15.431Z,100794
2017-06-05T02:22:43.645Z,100789
2017-06-05T02:25:12.385Z,100799
2017-06-05T02:27:40.566Z,100792
2017-06-05T02:30:08.746Z,100796
2017-06-05T02:32:37.726Z,100794
2017-06-05T02:35:05.909Z,100793
2017-06-05T02:37:34.590Z,100802
2017-06-05T02:40:03.558Z,100805
2017-06-05T02:42:31.747Z,100798
2017-06-05T02:44:59.966Z,100800
2017-06-05T02:47:28.207Z,100811
2017-06-05T02:49:56.755Z,100806
2017-06-05T02:52:24.955Z,100813
2017-06-05T02:54:53.219Z,100814
2017-06-05T02:57:21.479Z,100809
2017-06-05T02:59:49.681Z,100813
2017-06-05T03:02:18.228Z,100812
2017-06-05T03:04:46.471Z,100817
2017-06-05T03:07:14.661Z,100811
2017-06-05T03:09:42.890Z,100822
2017-06-05T03:12:11.860Z,100824
2017-06-05T03:14:40.444Z,100824
2017-06-05T03:17:08.628Z,100820
2017-06-05T03:19:36.815Z,100823
2017-06-05T03:22:05.036Z,100822
2017-06-05T03:24:33.219Z,100823
2017-06-05T03:27:01.802Z,100820
2017-06-05T03:29:30.026Z,100820
2017-06-05T03:31:58.227Z,100818
2017-06-05T03:34:26.447Z,100825
2017-06-05T03:36:55.465Z,100827
2017-06-05T03:39:24.840Z,100812
2017-06-05T03:41:53.040Z,100824
2017-06-05T03:44:21.995Z,100826
2017-06-05T03:46:50.236Z,100827
2017-06-05T03:49:18.454Z,100825
2017-06-05T03:51:47.026Z,100823
2017-06-05T03:54:15.201Z,100823
2017-06-05T03:56:43.387Z,100820
2017-06-05T03:59:11.607Z,100814
2017-06-05T04:01:39.797Z,100820
2017-06-05T04:04:08.336Z,100815
2017-06-05T04:06:36.554Z,100813
2017-06-05T04:09:04.719Z,100817
2017-06-05T04:11:32.930Z,100807
2017-06-05T04:14:01.104Z,100803
2017-06-05T04:16:29.622Z,100807
2017-06-05T04:18:57.811Z,100815
2017-06-05T04:21:26.010Z,100811
2017-06-05T04:23:54.222Z,100809
2017-06-05T04:26:23.186Z,100805
2017-06-05T04:28:51.824Z,100805
2017-06-05T04:31:20.001Z,100803
2017-06-05T04:33:48.188Z,100807
2017-06-05T04:36:16.395Z,100799
2017-06-05T04:38:44.603Z,100797
2017-06-05T04:41:13.239Z,100801
2017-06-05T04:43:41.422Z,100803
2017-06-05T04:46:09.608Z,100796
2017-06-05T04:48:38.583Z,100797
2017-06-05T04:51:06.771Z,100799
2017-06-05T04:53:35.330Z,100793
2017-06-05T04:56:03.514Z,100809
2017-06-05T04:58:31.761Z,100801
2017-06-05T05:00:59.963Z,100811
2017-06-05T05:03:28.155Z,100797
2017-06-05T05:05:57.477Z,100798
2017-06-05T05:08:25.660Z,100812
2017-06-05T05:10:53.842Z,100805
2017-06-05T05:13:22.062Z,100804
2017-06-05T05:15:50.252Z,100804
2017-06-05T05:18:18.811Z,100809
2017-06-05T05:20:46.985Z,100808
2017-06-05T05:23:15.154Z,100811
2017-06-05T05:25:43.406Z,100809
2017-06-05T05:28:11.607Z,100806
2017-06-05T05:30:40.299Z,100811
2017-06-05T05:33:08.488Z,100812
2017-06-05T05:35:37.477Z,100812
2017-06-05T05:38:06.449Z,100812
2017-06-05T05:40:34.653Z,100825
2017-06-05T05:43:04.005Z,100816
2017-06-05T05:45:32.203Z,100819
2017-06-05T05:48:00.367Z,100809
2017-06-05T05:50:28.576Z,100817
2017-06-05T05:52:57.596Z,100818
2017-06-05T05:55:26.213Z,100813
2017-06-05T05:57:54.408Z,100808
2017-06-05T06:00:23.427Z,100820
2017-06-05T06:02:51.643Z,100816
2017-06-05T06:05:19.861Z,100827
2017-06-05T06:07:49.212Z,100821
2017-06-05T06:10:17.436Z,100827
2017-06-05T06:12:45.703Z,100824
2017-06-05T06:15:13.915Z,100818
2017-06-05T06:17:42.297Z,100824
2017-06-05T06:20:10.912Z,100825
2017-06-05T06:22:39.128Z,100826
2017-06-05T06:25:07.343Z,100820
2017-06-05T06:27:35.542Z,100828
2017-06-05T06:30:03.761Z,100827
2017-06-05T06:32:32.308Z,100826
2017-06-05T06:35:01.281Z,100831
2017-06-05T06:37:29.456Z,100823
2017-06-05T06:39:57.675Z,100814
2017-06-05T06:42:25.875Z,100819
2017-06-05T06:44:54.451Z,100813
2017-06-05T06:47:22.718Z,100810
2017-06-05T06:49:50.895Z,100817
2017-06-05T06:52:19.119Z,100815
2017-06-05T06:54:47.318Z,100818
2017-06-05T06:57:15.830Z,100809
2017-06-05T06:59:44.051Z,100809
2017-06-05T07:02:13.015Z,100816
2017-06-05T07:04:41.235Z,100820
2017-06-05T07:07:10.196Z,100816
2017-06-05T07:09:38.748Z,100810
2017-06-05T07:12:06.975Z,100809
2017-06-05T07:14:35.951Z,100810
2017-06-05T07:17:04.980Z,100800
2017-06-05T07:19:33.733Z,100798
2017-06-05T07:22:03.045Z,100805
2017-06-05T07:24:31.259Z,100797
2017-06-05T07:26:59.481Z,100797
2017-06-05T07:29:27.698Z,100794
2017-06-05T07:31:55.934Z,100797
2017-06-05T07:34:24.704Z,100788
2017-06-05T07:36:52.928Z,100791
2017-06-05T07:39:21.139Z,100788
2017-06-05T07:41:49.351Z,100787
2017-06-05T07:44:18.323Z,100788
2017-06-05T07:46:47.739Z,100787
2017-06-05T07:49:15.968Z,100799
2017-06-05T07:51:44.134Z,100787
2017-06-05T07:54:12.384Z,100791
2017-06-05T07:56:40.579Z,100795
2017-06-05T07:59:09.137Z,100798
2017-06-05T08:01:37.361Z,100801
2017-06-05T08:04:05.585Z,100793
2017-06-05T08:06:33.781Z,100793
2017-06-05T08:09:01.981Z,100797
2017-06-05T08:11:30.844Z,100787
2017-06-05T08:13:59.018Z,100787
2017-06-05T08:16:27.230Z,100785
2017-06-05T08:18:55.462Z,100772
2017-06-05T08:21:23.707Z,100782
2017-06-05T08:23:52.991Z,100786
2017-06-05T08:26:21.977Z,100781
2017-06-05T08:28:50.195Z,100777
2017-06-05T08:31:18.407Z,100788
2017-06-05T08:33:46.625Z,100779
2017-06-05T08:36:15.260Z,100785
2017-06-05T08:38:43.439Z,100778
2017-06-05T08:41:11.643Z,100772
2017-06-05T08:43:40.785Z,100780
2017-06-05T08:46:08.988Z,100765
2017-06-05T08:48:37.646Z,100771
2017-06-05T08:51:05.839Z,100772
2017-06-05T08:53:34.013Z,100768
2017-06-05T08:56:02.298Z,100770
2017-06-05T08:58:30.489Z,100768
2017-06-05T09:00:59.947Z,100753
2017-06-05T09:03:28.179Z,100751
2017-06-05T09:05:56.370Z,100751
2017-06-05T09:08:24.586Z,100750
2017-06-05T09:10:52.761Z,100762
2017-06-05T09:13:21.261Z,100756
2017-06-05T09:15:50.222Z,100753
2017-06-05T09:18:18.433Z,100759
2017-06-05T09:20:46.637Z,100764
2017-06-05T09:23:14.838Z,100751
2017-06-05T09:25:43.414Z,100745
2017-06-05T09:28:11.615Z,100742
2017-06-05T09:30:39.825Z,100741
2017-06-05T09:33:08.040Z,100743
2017-06-05T09:35:36.223Z,100741
2017-06-05T09:38:04.757Z,100731
2017-06-05T09:40:32.975Z,100723
2017-06-05T09:43:01.219Z,100722
2017-06-05T09:45:29.533Z,100727
2017-06-05T09:47:57.832Z,100726
2017-06-05T09:50:27.260Z,100720
2017-06-05T09:52:55.459Z,100725
2017-06-05T09:55:23.683Z,100718
2017-06-05T09:57:52.664Z,100713
2017-06-05T10:00:20.817Z,100712
2017-06-05T10:02:49.419Z,100712
2017-06-05T10:05:17.605Z,100716
2017-06-05T10:07:45.802Z,100709
2017-06-05T10:10:14.004Z,100711
2017-06-05T10:12:42.293Z,100705
2017-06-05T10:15:10.855Z,100700
2017-06-05T10:17:39.036Z,100700
2017-06-05T10:20:07.384Z,100704
2017-06-05T10:22:35.619Z,100693
2017-06-05T10:25:03.817Z,100696
2017-06-05T10:27:33.179Z,100698
2017-06-05T10:30:01.375Z,100693
2017-06-05T10:32:29.584Z,100693
2017-06-05T10:34:57.778Z,100694
2017-06-05T10:37:25.987Z,100690
2017-06-05T10:39:54.267Z,100689
2017-06-05T10:42:22.546Z,100689
2017-06-05T10:44:50.767Z,100680
2017-06-05T10:47:19.337Z,100681
2017-06-05T10:49:47.566Z,100680
2017-06-05T10:52:15.782Z,100675
2017-06-05T10:54:44.012Z,100683
2017-06-05T10:57:12.275Z,100685
2017-06-05T10:59:40.895Z,100672
2017-06-05T11:02:09.085Z,100682
2017-06-05T11:04:37.298Z,100667
2017-06-05T11:07:05.498Z,100677
2017-06-05T11:09:35.374Z,100672
2017-06-05T11:12:03.976Z,100665
2017-06-05T11:14:32.212Z,100665
2017-06-05T11:17:00.447Z,100656
2017-06-05T11:19:28.701Z,100658
2017-06-05T11:21:56.923Z,100656
2017-06-05T11:24:25.562Z,100662
2017-06-05T11:26:53.748Z,100654
2017-06-05T11:29:22.091Z,100651
2017-06-05T11:31:50.337Z,100648
2017-06-05T11:34:18.636Z,100650
2017-06-05T11:36:47.228Z,100653
2017-06-05T11:39:15.484Z,100651
2017-06-05T11:41:43.726Z,100649
2017-06-05T11:44:12.722Z,100646
2017-06-05T11:46:40.926Z,100652
2017-06-05T11:49:09.144Z,100645
2017-06-05T11:51:37.638Z,100638
2017-06-05T11:54:06.191Z,100626
2017-06-05T11:56:34.372Z,100635
2017-06-05T11:59:02.573Z,100629
2017-06-05T12:01:31.553Z,100625
2017-06-05T12:03:59.763Z,100628
2017-06-05T12:06:28.498Z,100628
2017-06-05T12:08:56.701Z,100628
2017-06-05T12:11:24.898Z,100617
2017-06-05T12:13:53.096Z,100619
2017-06-05T12:16:21.298Z,100624
2017-06-05T12:18:50.675Z,100614
2017-06-05T12:21:18.886Z,100611
2017-06-05T12:23:47.917Z,100609
2017-06-05T12:26:16.121Z,100612
2017-06-05T12:28:44.396Z,100609
2017-06-05T12:31:12.996Z,100612
2017-06-05T12:33:41.250Z,100609
2017-06-05T12:36:09.457Z,100607
2017-06-05T12:38:37.832Z,100611
2017-06-05T12:41:06.036Z,100611
2017-06-05T12:43:34.570Z,100611
2017-06-05T12:46:02.742Z,100601
2017-06-05T12:48:30.982Z,100601
2017-06-05T12:50:59.181Z,100606
2017-06-05T12:53:27.370Z,100599
2017-06-05T12:55:55.962Z,100596
2017-06-05T12:58:24.166Z,100597
2017-06-05T13:00:52.374Z,100598
2017-06-05T13:03:20.640Z,100580
2017-06-05T13:05:48.853Z,100587
2017-06-05T13:08:17.491Z,100590
2017-06-05T13:10:45.670Z,100588
2017-06-05T13:13:13.888Z,100581
2017-06-05T13:15:42.131Z,100586
2017-06-05T13:18:10.315Z,100575
2017-06-05T13:20:38.831Z,100567
2017-06-05T13:23:07.020Z,100567
2017-06-05T13:25:35.204Z,100563
2017-06-05T13:28:03.432Z,100562
2017-06-05T13:30:31.642Z,100550
2017-06-05T13:33:00.276Z,100558
2017-06-05T13:35:28.506Z,100549
2017-06-05T13:37:56.750Z,100546
2017-06-05T13:40:25.741Z,100550
2017-06-05T13:42:54.767Z,100550
2017-06-05T13:45:23.361Z,100550
2017-06-05T13:47:51.522Z,100560
2017-06-05T13:50:19.727Z,100550
2017-06-05T13:52:47.991Z,100548
2017-06-05T13:55:16.193Z,100545
2017-06-05T13:57:44.388Z,100535
2017-06-05T14:00:13.398Z,100535
2017-06-05T14:02:41.680Z,100538
2017-06-05T14:05:10.315Z,100542
2017-06-05T14:07:38.590Z,100535
2017-06-05T14:10:06.887Z,100536
2017-06-05T14:12:35.838Z,100538
2017-06-05T14:15:04.024Z,100533
2017-06-05T14:17:32.628Z,100526
2017-06-05T14:20:00.914Z,100514
2017-06-05T14:22:29.113Z,100520
2017-06-05T14:24:57.370Z,100511
2017-06-05T14:27:25.585Z,100512
2017-06-05T14:29:54.224Z,100508
2017-06-05T14:32:23.185Z,100508
2017-06-05T14:34:51.380Z,100501
2017-06-05T14:37:20.352Z,100499
2017-06-05T14:39:48.562Z,100502
2017-06-05T14:42:17.171Z,100495
2017-06-05T14:44:45.479Z,100494
2017-06-05T14:47:13.687Z,100488
2017-06-05T14:49:41.927Z,100492
2017-06-05T14:52:10.099Z,100486
2017-06-05T14:54:38.627Z,100483
2017-06-05T14:57:06.847Z,100481
2017-06-05T14:59:35.035Z,100478
2017-06-05T15:02:03.241Z,100478
2017-06-05T15:04:32.221Z,100478
2017-06-05T15:07:00.760Z,100471
2017-06-05T15:09:28.933Z,100473
2017-06-05T15:11:57.101Z,100477
2017-06-05T15:14:25.308Z,100476
2017-06-05T15:16:53.482Z,100474
2017-06-05T15:19:22.064Z,100469
2017-06-05T15:21:50.237Z,100467
2017-06-05T15:24:18.421Z,100465
2017-06-05T15:26:46.623Z,100463
2017-06-05T15:29:14.810Z,100452
2017-06-05T15:31:43.427Z,100458
2017-06-05T15:34:11.620Z,100451
2017-06-05T15:36:39.883Z,100451
2017-06-05T15:39:08.085Z,100447
2017-06-05T15:41:37.050Z,100442
2017-06-05T15:44:05.619Z,100435
2017-06-05T15:46:33.828Z,100440
2017-06-05T15:49:02.072Z,100433
2017-06-05T15:51:30.265Z,100433
2017-06-05T15:53:58.462Z,100429
2017-06-05T15:56:26.991Z,100427
2017-06-05T15:58:55.211Z,100433
2017-06-05T16:01:24.186Z,100426
2017-06-05T16:03:52.444Z,100433
2017-06-05T16:06:20.627Z,100426
2017-06-05T16:08:49.207Z,100419
2017-06-05T16:11:17.395Z,100413
2017-06-05T16:13:45.626Z,100417
2017-06-05T16:16:13.821Z,100406
2017-06-05T16:18:42.067Z,100403
2017-06-05T16:21:10.637Z,100405
2017-06-05T16:23:38.918Z,100404
2017-06-05T16:26:07.090Z,100402
2017-06-05T16:28:35.283Z,100396
2017-06-05T16:31:03.514Z,100400
2017-06-05T16:33:32.162Z,100400
2017-06-05T16:36:00.374Z,100397
2017-06-05T16:38:28.591Z,100391
2017-06-05T16:40:56.790Z,100392
2017-06-05T16:43:24.979Z,100391
2017-06-05T16:45:54.307Z,100383
2017-06-05T16:48:22.515Z,100382
2017-06-05T16:50:50.734Z,100374
2017-06-05T16:53:18.958Z,100380
2017-06-05T16:55:47.170Z,100369
2017-06-05T16:58:16.527Z,100376
2017-06-05T17:00:44.764Z,100369
2017-06-05T17:03:14.820Z,100378
2017-06-05T17:05:43.193Z,100367
2017-06-05T17:08:11.367Z,100373
2017-06-05T17:10:39.757Z,100368
2017-06-05T17:13:08.033Z,100364
2017-06-05T17:15:36.430Z,100367
2017-06-05T17:18:05.014Z,100353
2017-06-05T17:20:33.219Z,100349
2017-06-05T17:23:01.445Z,100356
2017-06-05T17:25:29.688Z,100356
2017-06-05T17:27:57.962Z,100354
2017-06-05T17:30:26.676Z,100352
2017-06-05T17:32:54.963Z,100353
2017-06-05T17:35:23.151Z,100339
2017-06-05T17:37:52.181Z,100346
2017-06-05T17:40:20.426Z,100350
2017-06-05T17:42:50.122Z,100342
2017-06-05T17:45:18.310Z,100345
2017-06-05T17:47:46.504Z,100349
2017-06-05T17:50:14.735Z,100343
2017-06-05T17:52:42.962Z,100342
2017-06-05T17:55:11.516Z,100338
2017-06-05T17:57:40.477Z,100335
2017-06-05T18:00:08.793Z,100332
2017-06-05T18:02:37.918Z,100338
2017-06-05T18:05:06.133Z,100338
2017-06-05T18:07:34.678Z,100337
2017-06-05T18:10:02.874Z,100337
2017-06-05T18:12:31.069Z,100339
2017-06-05T18:14:59.307Z,100334
2017-06-05T18:17:27.509Z,100331
2017-06-05T18:19:56.048Z,100325
2017-06-05T18:22:24.277Z,100331
2017-06-05T18:24:52.511Z,100324
2017-06-05T18:27:20.779Z,100320
2017-06-05T18:29:48.971Z,100317
2017-06-05T18:32:17.565Z,100331
2017-06-05T18:34:45.871Z,100326
2017-06-05T18:37:14.872Z,100320
2017-06-05T18:39:43.136Z,100331
2017-06-05T18:42:12.137Z,100326
2017-06-05T18:44:41.456Z,100323
2017-06-05T18:47:10.123Z,100330
2017-06-05T18:49:38.317Z,100325
2017-06-05T18:52:06.597Z,100334
2017-06-05T18:54:34.866Z,100321
2017-06-05T18:57:03.502Z,100321
2017-06-05T18:59:32.684Z,100309
2017-06-05T19:02:00.960Z,100315
2017-06-05T19:04:29.198Z,100322
2017-06-05T19:06:57.475Z,100318
2017-06-05T19:09:26.187Z,100330
2017-06-05T19:11:54.546Z,100325
2017-06-05T19:14:22.972Z,100326
2017-06-05T19:16:52.143Z,100318
2017-06-05T19:19:20.460Z,100321
2017-06-05T19:21:49.203Z,100316
2017-06-05T19:24:17.496Z,100325
2017-06-05T19:26:45.823Z,100318
2017-06-05T19:29:14.210Z,100319
2017-06-05T19:31:42.557Z,100320
2017-06-05T19:34:11.225Z,100313
2017-06-05T19:36:42.232Z,100318
2017-06-05T19:39:11.024Z,100318
2017-06-05T19:41:39.352Z,100323
2017-06-05T19:44:07.630Z,100313
2017-06-05T19:46:36.008Z,100319
2017-06-05T19:49:04.313Z,100316
2017-06-05T19:51:34.017Z,100322
2017-06-05T19:54:02.367Z,100322
2017-06-05T19:56:30.694Z,100314
2017-06-05T19:58:59.081Z,100318
2017-06-05T20:01:27.380Z,100312
2017-06-05T20:03:57.049Z,100324
2017-06-05T20:06:25.384Z,100318
2017-06-05T20:08:53.879Z,100317
2017-06-05T20:11:22.185Z,100315
2017-06-05T20:13:50.505Z,100311
2017-06-05T20:16:19.977Z,100301
2017-06-05T20:18:49.217Z,100317
2017-06-05T20:21:17.515Z,100312
2017-06-05T20:23:45.831Z,100311
2017-06-05T20:26:14.094Z,100311
2017-06-05T20:28:42.775Z,100309
2017-06-05T20:31:11.083Z,100309
2017-06-05T20:33:39.383Z,100307
2017-06-05T20:36:07.615Z,100300
2017-06-05T20:38:35.918Z,100305
2017-06-05T20:41:05.300Z,100297
2017-06-05T20:43:33.492Z,100293
2017-06-05T20:46:02.495Z,100299
2017-06-05T20:48:30.756Z,100296
2017-06-05T20:50:58.983Z,100299
2017-06-05T20:53:27.611Z,100298
2017-06-05T20:55:55.928Z,100303
2017-06-05T20:58:24.159Z,100294
2017-06-05T21:00:52.417Z,100293
2017-06-05T21:03:20.693Z,100288
2017-06-05T21:05:49.385Z,100289
2017-06-05T21:08:17.610Z,100288
2017-06-05T21:10:45.837Z,100288
2017-06-05T21:13:14.039Z,100293
2017-06-05T21:15:42.233Z,100288
2017-06-05T21:18:10.890Z,100285
2017-06-05T21:20:39.070Z,100277
2017-06-05T21:23:07.268Z,100277
2017-06-05T21:25:35.447Z,100277
2017-06-05T21:28:03.635Z,100271
2017-06-05T21:30:32.256Z,100274
2017-06-05T21:33:01.218Z,100261
2017-06-05T21:35:29.391Z,100260
2017-06-05T21:37:58.416Z,100265
2017-06-05T21:40:27.393Z,100266
2017-06-05T21:42:55.927Z,100264
2017-06-05T21:45:24.142Z,100261
2017-06-05T21:47:52.354Z,100265
2017-06-05T21:50:20.869Z,100259
2017-06-05T21:52:49.062Z,100269
2017-06-05T21:55:17.638Z,100259
2017-06-05T21:57:45.834Z,100256
2017-06-05T22:00:14.075Z,100264
2017-06-05T22:02:42.287Z,100251
2017-06-05T22:05:10.462Z,100252
2017-06-05T22:07:39.952Z,100256
2017-06-05T22:10:08.130Z,100255
2017-06-05T22:12:36.314Z,100251
2017-06-05T22:15:04.531Z,100248
2017-06-05T22:17:32.704Z,100247
2017-06-05T22:20:01.320Z,100229
2017-06-05T22:22:29.632Z,100233
2017-06-05T22:24:58.592Z,100228
2017-06-05T22:27:26.795Z,100220
2017-06-05T22:29:55.754Z,100216
2017-06-05T22:32:24.944Z,100215
2017-06-05T22:34:53.144Z,100213
2017-06-05T22:37:21.339Z,100208
2017-06-05T22:39:49.541Z,100195
2017-06-05T22:42:17.742Z,100209
2017-06-05T22:44:46.320Z,100199
2017-06-05T22:47:14.492Z,100199
2017-06-05T22:49:42.674Z,100197
2017-06-05T22:52:10.863Z,100197
2017-06-05T22:54:39.067Z,100193
2017-06-05T22:57:07.691Z,100186
2017-06-05T22:59:35.867Z,100186
2017-06-05T23:02:04.060Z,100185
2017-06-05T23:04:32.258Z,100186
2017-06-05T23:07:00.662Z,100188
2017-06-05T23:09:29.402Z,100178
2017-06-05T23:11:58.347Z,100174
2017-06-05T23:14:26.568Z,100170
2017-06-05T23:16:55.522Z,100172
2017-06-05T23:19:23.716Z,100166
2017-06-05T23:21:51.924Z,100164
2017-06-05T23:24:20.101Z,100161
2017-06-05T23:26:48.275Z,100155
2017-06-05T23:29:16.474Z,100151
2017-06-05T23:31:44.636Z,100145
2017-06-05T23:34:13.273Z,100153
2017-06-05T23:36:41.458Z,100151
2017-06-05T23:39:10.584Z,100151
2017-06-05T23:41:38.765Z,100148
2017-06-05T23:44:06.940Z,100134
2017-06-05T23:46:35.545Z,100139
2017-06-05T23:49:03.737Z,100123
2017-06-05T23:51:31.920Z,100135
2017-06-05T23:54:00.121Z,100136
2017-06-05T23:56:28.321Z,100130
2017-06-05T23:58:56.979Z,100129
